createdAt,value
2023-02-11T00:00:16.741Z,13.00
2023-02-11T00:02:46.082Z,14.80
2023-02-11T00:05:13.921Z,8.05
2023-02-11T00:07:40.319Z,17.17
2023-02-11T00:10:10.049Z,16.13
2023-02-11T00:12:38.121Z,16.42
2023-02-11T00:15:06.308Z,10.53
2023-02-11T00:17:33.255Z,11.85
2023-02-11T00:19:59.796Z,15.73
2023-02-11T00:22:26.257Z,11.10
2023-02-11T00:24:53.606Z,15.13
2023-02-11T00:27:20.000Z,10.10
2023-02-11T00:29:46.447Z,11.75
2023-02-11T00:32:12.868Z,12.52
2023-02-11T00:34:39.327Z,14.02
2023-02-11T00:37:06.155Z,10.02
2023-02-11T00:39:32.692Z,9.47
2023-02-11T00:41:59.172Z,15.23
2023-02-11T00:44:25.605Z,14.35
2023-02-11T00:46:51.994Z,12.95
2023-02-11T00:49:18.412Z,14.43
2023-02-11T00:51:45.078Z,15.67
2023-02-11T00:54:11.695Z,10.50
2023-02-11T00:56:38.162Z,17.35
2023-02-11T00:59:04.575Z,13.50
2023-02-11T01:01:30.943Z,14.45
2023-02-11T01:03:57.365Z,16.70
2023-02-11T01:06:23.723Z,14.18
2023-02-11T01:08:50.139Z,12.00
2023-02-11T01:11:20.219Z,14.98
2023-02-11T01:13:47.799Z,13.65
2023-02-11T01:16:14.580Z,9.60
2023-02-11T01:18:42.658Z,16.65
2023-02-11T01:21:09.025Z,16.60
2023-02-11T01:23:35.556Z,12.90
2023-02-11T01:26:01.992Z,11.00
2023-02-11T01:28:30.176Z,16.37
2023-02-11T01:30:56.890Z,13.68
2023-02-11T01:33:24.592Z,14.02
2023-02-11T01:35:51.545Z,13.55
2023-02-11T01:38:23.921Z,14.55
2023-02-11T01:40:52.951Z,8.80
2023-02-11T01:43:20.838Z,16.27
2023-02-11T01:45:47.286Z,8.90
2023-02-11T01:48:25.165Z,17.00
2023-02-11T01:50:57.037Z,21.83
2023-02-11T01:53:42.731Z,10.90
2023-02-11T01:56:30.033Z,11.52
2023-02-11T01:59:05.911Z,14.70
2023-02-11T02:01:34.599Z,12.70
2023-02-11T02:04:03.202Z,12.52
2023-02-11T02:06:35.760Z,20.20
2023-02-11T02:09:09.369Z,24.75
2023-02-11T02:11:36.296Z,14.98
2023-02-11T02:14:03.224Z,19.35
2023-02-11T02:16:35.976Z,13.20
2023-02-11T02:19:38.845Z,15.20
2023-02-11T02:22:32.215Z,16.48
2023-02-11T02:25:10.501Z,14.48
2023-02-11T02:28:09.316Z,8.55
2023-02-11T02:31:06.714Z,13.88
2023-02-11T02:33:55.870Z,15.67
2023-02-11T02:36:43.810Z,13.52
2023-02-11T02:39:21.376Z,11.90
2023-02-11T02:41:50.386Z,13.85
2023-02-11T02:44:18.755Z,12.77
2023-02-11T02:46:45.425Z,11.00
2023-02-11T02:49:16.628Z,14.80
2023-02-11T02:52:07.767Z,16.50
2023-02-11T02:54:49.336Z,13.15
2023-02-11T02:57:33.369Z,13.50
2023-02-11T03:00:18.441Z,15.83
2023-02-11T03:02:57.869Z,12.70
2023-02-11T03:06:04.182Z,15.68
2023-02-11T03:08:49.482Z,17.33
2023-02-11T03:11:19.224Z,10.82
2023-02-11T03:13:47.387Z,10.53
2023-02-11T03:16:19.608Z,16.70
2023-02-11T03:18:52.578Z,11.70
2023-02-11T03:21:20.738Z,17.30
2023-02-11T03:23:50.009Z,13.05
2023-02-11T03:26:38.411Z,13.40
2023-02-11T03:29:14.219Z,16.45
2023-02-11T03:31:52.445Z,13.10
2023-02-11T03:34:46.443Z,8.20
2023-02-11T03:37:31.558Z,12.63
2023-02-11T03:40:03.701Z,12.93
2023-02-11T03:42:56.901Z,18.77
2023-02-11T03:45:25.753Z,12.98
2023-02-11T03:47:58.088Z,11.43
2023-02-11T03:50:26.782Z,20.90
2023-02-11T03:52:55.565Z,15.70
2023-02-11T03:55:25.877Z,17.20
2023-02-11T03:57:52.410Z,15.93
2023-02-11T04:00:19.220Z,18.00
2023-02-11T04:02:45.840Z,16.52
2023-02-11T04:05:15.500Z,16.23
2023-02-11T04:07:42.150Z,13.75
2023-02-11T04:10:08.992Z,14.60
2023-02-11T04:12:35.379Z,18.77
2023-02-11T04:15:01.738Z,19.77
2023-02-11T04:17:28.088Z,13.50
2023-02-11T04:19:54.520Z,16.85
2023-02-11T04:22:20.852Z,15.57
2023-02-11T04:24:47.237Z,21.00
2023-02-11T04:27:13.819Z,17.40
2023-02-11T04:29:40.302Z,13.03
2023-02-11T04:32:06.763Z,17.25
2023-02-11T04:34:33.401Z,17.80
2023-02-11T04:36:59.808Z,19.08
2023-02-11T04:39:26.224Z,16.20
2023-02-11T04:41:52.865Z,16.43
2023-02-11T04:44:19.254Z,15.25
2023-02-11T04:46:45.672Z,19.08
2023-02-11T04:49:16.854Z,22.08
2023-02-11T04:51:46.960Z,16.23
2023-02-11T04:54:14.645Z,28.07
2023-02-11T04:56:41.117Z,17.88
2023-02-11T04:59:07.795Z,18.27
2023-02-11T05:01:34.249Z,18.23
2023-02-11T05:04:00.683Z,23.38
2023-02-11T05:06:27.083Z,22.17
2023-02-11T05:08:53.509Z,21.00
2023-02-11T05:11:22.817Z,21.75
2023-02-11T05:13:49.297Z,17.42
2023-02-11T05:16:17.246Z,21.65
2023-02-11T05:18:44.911Z,20.43
2023-02-11T05:21:17.218Z,16.88
2023-02-11T05:23:45.302Z,24.27
2023-02-11T05:26:12.201Z,18.45
2023-02-11T05:28:39.361Z,21.95
2023-02-11T05:31:06.299Z,17.50
2023-02-11T05:33:33.012Z,21.42
2023-02-11T05:36:01.048Z,18.55
2023-02-11T05:38:27.651Z,23.05
2023-02-11T05:40:54.896Z,17.42
2023-02-11T05:43:21.538Z,27.03
2023-02-11T05:45:48.310Z,19.58
2023-02-11T05:48:14.997Z,25.88
2023-02-11T05:50:41.525Z,22.58
2023-02-11T05:53:07.974Z,23.95
2023-02-11T05:55:34.918Z,20.07
2023-02-11T05:58:01.637Z,19.77
2023-02-11T06:00:28.088Z,23.80
2023-02-11T06:02:54.609Z,24.77
2023-02-11T06:05:21.037Z,26.70
2023-02-11T06:07:47.545Z,24.50
2023-02-11T06:10:14.090Z,28.25
2023-02-11T06:12:40.470Z,18.48
2023-02-11T06:15:07.479Z,23.08
2023-02-11T06:17:34.005Z,19.90
2023-02-11T06:20:02.740Z,21.90
2023-02-11T06:22:29.379Z,20.92
2023-02-11T06:25:01.723Z,21.38
2023-02-11T06:27:28.795Z,24.42
2023-02-11T06:29:55.213Z,21.80
2023-02-11T06:32:42.591Z,20.63
2023-02-11T06:35:11.729Z,22.60
2023-02-11T06:37:38.707Z,21.55
2023-02-11T06:40:05.454Z,22.80
2023-02-11T06:42:31.993Z,22.58
2023-02-11T06:44:58.445Z,26.40
2023-02-11T06:47:24.818Z,24.88
2023-02-11T06:49:51.255Z,20.33
2023-02-11T06:52:17.670Z,21.73
2023-02-11T06:54:44.098Z,23.27
2023-02-11T06:57:10.464Z,27.30
2023-02-11T06:59:36.833Z,25.13
2023-02-11T07:02:03.246Z,21.50
2023-02-11T07:04:29.682Z,23.58
2023-02-11T07:06:56.074Z,30.00
2023-02-11T07:09:22.478Z,27.67
2023-02-11T07:11:48.866Z,27.85
2023-02-11T07:14:15.290Z,27.85
2023-02-11T07:16:41.694Z,26.88
2023-02-11T07:19:08.146Z,24.95
2023-02-11T07:21:34.774Z,23.50
2023-02-11T07:24:01.902Z,25.48
2023-02-11T07:26:29.171Z,24.55
2023-02-11T07:28:55.801Z,26.13
2023-02-11T07:31:25.378Z,23.95
2023-02-11T07:33:54.516Z,29.30
2023-02-11T07:36:21.980Z,25.40
2023-02-11T07:38:48.941Z,33.20
2023-02-11T07:41:18.922Z,26.63
2023-02-11T07:43:45.661Z,24.08
2023-02-11T07:46:16.834Z,24.37
2023-02-11T07:48:43.367Z,26.92
2023-02-11T07:51:11.181Z,24.85
2023-02-11T07:53:37.971Z,22.60
2023-02-11T07:56:05.746Z,25.77
2023-02-11T07:58:32.942Z,24.53
2023-02-11T08:01:04.789Z,35.47
2023-02-11T08:03:31.846Z,21.50
2023-02-11T08:05:58.607Z,25.15
2023-02-11T08:08:28.153Z,24.42
2023-02-11T08:10:54.600Z,28.03
2023-02-11T08:13:20.995Z,27.02
2023-02-11T08:15:47.457Z,27.38
2023-02-11T08:18:13.833Z,27.85
2023-02-11T08:20:40.653Z,24.88
2023-02-11T08:23:07.903Z,28.13
2023-02-11T08:25:34.379Z,27.90
2023-02-11T08:28:00.777Z,28.13
2023-02-11T08:30:27.686Z,32.47
2023-02-11T08:32:54.186Z,30.20
2023-02-11T08:35:20.534Z,22.90
2023-02-11T08:37:46.924Z,26.83
2023-02-11T08:40:13.424Z,26.85
2023-02-11T08:42:39.834Z,30.38
2023-02-11T08:45:06.844Z,29.17
2023-02-11T08:47:33.266Z,21.63
2023-02-11T08:49:59.705Z,28.95
2023-02-11T08:52:26.127Z,25.05
2023-02-11T08:54:52.561Z,26.13
2023-02-11T08:57:18.972Z,24.55
2023-02-11T08:59:45.320Z,26.80
2023-02-11T09:02:14.011Z,23.20
2023-02-11T09:04:40.911Z,26.65
2023-02-11T09:07:07.601Z,20.88
2023-02-11T09:09:34.067Z,25.58
2023-02-11T09:12:01.290Z,21.07
2023-02-11T09:14:28.252Z,23.77
2023-02-11T09:16:54.707Z,22.02
2023-02-11T09:19:21.296Z,23.13
2023-02-11T09:21:47.868Z,24.63
2023-02-11T09:24:14.818Z,22.60
2023-02-11T09:26:43.215Z,24.23
2023-02-11T09:29:09.616Z,26.10
2023-02-11T09:31:36.230Z,27.55
2023-02-11T09:34:04.990Z,23.00
2023-02-11T09:36:38.378Z,19.27
2023-02-11T09:39:07.344Z,20.95
2023-02-11T09:41:58.434Z,20.98
2023-02-11T09:44:45.856Z,25.67
2023-02-11T09:47:27.873Z,22.33
2023-02-11T09:50:01.289Z,19.97
2023-02-11T09:52:39.613Z,16.38
2023-02-11T09:55:18.710Z,17.52
2023-02-11T09:57:45.301Z,18.65
2023-02-11T10:00:22.088Z,18.27
2023-02-11T10:02:58.238Z,21.43
2023-02-11T10:05:30.570Z,17.65
2023-02-11T10:07:59.831Z,19.38
2023-02-11T10:10:50.391Z,18.02
2023-02-11T10:13:32.129Z,17.73
2023-02-11T10:15:58.483Z,16.13
2023-02-11T10:18:41.339Z,16.33
2023-02-11T10:21:16.871Z,15.57
2023-02-11T10:23:48.604Z,15.98
2023-02-11T10:26:17.483Z,17.73
2023-02-11T10:28:47.826Z,20.50
2023-02-11T10:31:20.388Z,16.55
2023-02-11T10:34:02.372Z,18.60
2023-02-11T10:36:32.993Z,19.60
2023-02-11T10:39:16.374Z,20.92
2023-02-11T10:41:46.006Z,14.53
2023-02-11T10:44:32.027Z,17.17
2023-02-11T10:47:04.305Z,13.32
2023-02-11T10:49:44.766Z,13.90
2023-02-11T10:52:18.174Z,12.55
2023-02-11T10:55:14.819Z,16.13
2023-02-11T10:58:02.216Z,11.13
2023-02-11T11:00:42.186Z,14.73
2023-02-11T11:03:23.899Z,14.45
2023-02-11T11:05:58.738Z,13.25
2023-02-11T11:08:57.833Z,13.63
2023-02-11T11:11:25.782Z,13.48
2023-02-11T11:13:52.102Z,13.02
2023-02-11T11:16:21.448Z,13.98
2023-02-11T11:18:50.882Z,13.55
2023-02-11T11:21:36.756Z,14.67
2023-02-11T11:24:04.202Z,14.35
2023-02-11T11:26:41.486Z,15.38
2023-02-11T11:29:14.485Z,13.18
2023-02-11T11:32:01.125Z,13.93
2023-02-11T11:34:32.129Z,14.27
2023-02-11T11:37:00.007Z,15.55
2023-02-11T11:39:28.517Z,11.25
2023-02-11T11:41:57.950Z,11.85
2023-02-11T11:44:26.285Z,10.32
2023-02-11T11:47:05.038Z,11.13
2023-02-11T11:49:39.352Z,12.65
2023-02-11T11:52:19.458Z,10.35
2023-02-11T11:54:51.911Z,8.82
2023-02-11T11:57:25.634Z,10.15
2023-02-11T11:59:52.219Z,7.87
2023-02-11T12:02:40.307Z,11.07
2023-02-11T12:05:45.494Z,12.15
2023-02-11T12:08:44.369Z,13.80
2023-02-11T12:11:31.262Z,8.73
2023-02-11T12:14:20.264Z,8.43
2023-02-11T12:17:05.126Z,7.35
2023-02-11T12:19:56.238Z,7.68
2023-02-11T12:22:46.489Z,8.63
2023-02-11T12:25:23.526Z,5.90
2023-02-11T12:28:14.294Z,10.27
2023-02-11T12:31:06.547Z,7.63
2023-02-11T12:34:18.260Z,8.45
2023-02-11T12:37:16.931Z,8.07
2023-02-11T12:39:50.770Z,10.82
2023-02-11T12:42:56.651Z,8.53
2023-02-11T12:45:38.757Z,7.13
2023-02-11T12:48:23.267Z,7.85
2023-02-11T12:50:56.685Z,4.72
2023-02-11T12:53:38.441Z,8.55
2023-02-11T12:56:24.568Z,7.97
2023-02-11T12:58:55.503Z,6.03
2023-02-11T13:01:34.125Z,6.57
2023-02-11T13:04:20.148Z,6.82
2023-02-11T13:06:51.830Z,7.35
2023-02-11T13:09:31.474Z,4.93
2023-02-11T13:12:23.303Z,9.63
2023-02-11T13:14:54.395Z,8.40
2023-02-11T13:17:33.983Z,5.25
2023-02-11T13:20:18.410Z,7.47
2023-02-11T13:22:57.189Z,5.77
2023-02-11T13:25:40.801Z,7.85
2023-02-11T13:28:36.334Z,8.60
2023-02-11T13:31:06.799Z,5.95
2023-02-11T13:33:35.999Z,9.23
2023-02-11T13:36:04.619Z,8.97
2023-02-11T13:38:32.130Z,6.10
2023-02-11T13:41:21.232Z,9.23
2023-02-11T13:43:59.304Z,6.57
2023-02-11T13:46:27.625Z,6.72
2023-02-11T13:48:54.610Z,6.10
2023-02-11T13:51:42.852Z,8.48
2023-02-11T13:54:20.976Z,8.60
2023-02-11T13:57:16.162Z,6.15
2023-02-11T13:59:42.480Z,10.57
2023-02-11T14:02:48.580Z,6.33
2023-02-11T14:05:36.952Z,8.43
2023-02-11T14:08:30.924Z,7.75
2023-02-11T14:10:57.279Z,7.32
2023-02-11T14:13:34.082Z,9.60
2023-02-11T14:16:28.298Z,6.73
2023-02-11T14:19:02.471Z,6.80
2023-02-11T14:21:32.353Z,6.30
2023-02-11T14:24:01.433Z,6.80
2023-02-11T14:26:52.270Z,7.82
2023-02-11T14:29:39.197Z,6.50
2023-02-11T14:32:29.134Z,10.52
2023-02-11T14:35:24.650Z,8.50
2023-02-11T14:37:51.084Z,9.57
2023-02-11T14:40:41.831Z,8.18
2023-02-11T14:43:16.926Z,7.00
2023-02-11T14:45:48.029Z,8.05
2023-02-11T14:48:17.646Z,9.20
2023-02-11T14:51:00.498Z,7.38
2023-02-11T14:53:30.261Z,6.40
2023-02-11T14:55:56.668Z,8.63
2023-02-11T14:58:32.247Z,7.32
2023-02-11T15:01:22.212Z,6.38
2023-02-11T15:03:49.675Z,6.10
2023-02-11T15:06:16.030Z,8.52
2023-02-11T15:08:47.014Z,10.73
2023-02-11T15:11:17.525Z,5.78
2023-02-11T15:13:47.499Z,8.77
2023-02-11T15:16:18.836Z,6.53
2023-02-11T15:18:51.851Z,6.57
2023-02-11T15:21:25.118Z,6.57
2023-02-11T15:24:00.674Z,8.48
2023-02-11T15:26:27.852Z,9.90
2023-02-11T15:28:56.004Z,7.85
2023-02-11T15:31:25.274Z,7.53
2023-02-11T15:33:52.910Z,6.53
2023-02-11T15:36:23.818Z,7.97
2023-02-11T15:39:29.338Z,7.50
2023-02-11T15:41:55.799Z,6.88
2023-02-11T15:44:30.631Z,6.18
2023-02-11T15:46:57.364Z,7.30
2023-02-11T15:49:25.358Z,7.65
2023-02-11T15:51:53.723Z,8.07
2023-02-11T15:54:26.679Z,6.30
2023-02-11T15:56:58.962Z,9.00
2023-02-11T15:59:35.491Z,5.60
2023-02-11T16:02:15.989Z,11.27
2023-02-11T16:04:51.107Z,7.25
2023-02-11T16:07:37.340Z,9.43
2023-02-11T16:10:04.044Z,8.90
2023-02-11T16:12:30.473Z,8.07
2023-02-11T16:14:59.722Z,8.40
2023-02-11T16:17:28.726Z,6.47
2023-02-11T16:19:55.878Z,7.80
2023-02-11T16:22:29.888Z,7.03
2023-02-11T16:24:59.349Z,5.83
2023-02-11T16:27:30.349Z,6.47
2023-02-11T16:29:58.404Z,7.47
2023-02-11T16:32:27.359Z,7.22
2023-02-11T16:34:57.882Z,6.88
2023-02-11T16:37:25.120Z,6.03
2023-02-11T16:39:55.726Z,10.70
2023-02-11T16:42:22.175Z,7.93
2023-02-11T16:44:48.562Z,9.65
2023-02-11T16:47:22.763Z,6.93
2023-02-11T16:49:49.656Z,6.67
2023-02-11T16:52:18.116Z,8.70
2023-02-11T16:54:44.512Z,6.25
2023-02-11T16:57:20.262Z,7.13
2023-02-11T16:59:47.394Z,6.25
2023-02-11T17:02:25.945Z,5.97
2023-02-11T17:04:54.482Z,5.72
2023-02-11T17:07:21.614Z,10.15
2023-02-11T17:09:48.064Z,5.97
2023-02-11T17:12:14.424Z,6.97
2023-02-11T17:14:40.794Z,8.20
2023-02-11T17:17:08.003Z,6.63
2023-02-11T17:19:34.515Z,7.20
2023-02-11T17:22:01.009Z,7.38
2023-02-11T17:24:27.480Z,6.43
2023-02-11T17:26:54.797Z,9.33
2023-02-11T17:29:24.004Z,9.82
2023-02-11T17:31:51.934Z,6.40
2023-02-11T17:34:19.485Z,6.15
2023-02-11T17:36:45.877Z,7.25
2023-02-11T17:39:12.595Z,10.80
2023-02-11T17:41:40.259Z,9.15
2023-02-11T17:44:07.993Z,8.05
2023-02-11T17:46:35.538Z,8.75
2023-02-11T17:49:02.842Z,7.35
2023-02-11T17:51:34.856Z,7.63
2023-02-11T17:54:04.517Z,11.55
2023-02-11T17:56:35.777Z,7.78
2023-02-11T17:59:02.900Z,8.30
2023-02-11T18:01:30.856Z,7.50
2023-02-11T18:03:57.366Z,8.50
2023-02-11T18:06:24.524Z,9.55
2023-02-11T18:08:50.938Z,11.10
2023-02-11T18:11:17.722Z,9.10
2023-02-11T18:13:45.319Z,8.98
2023-02-11T18:16:15.599Z,9.23
2023-02-11T18:18:43.272Z,11.23
2023-02-11T18:21:14.766Z,11.90
2023-02-11T18:23:41.314Z,9.52
2023-02-11T18:26:09.285Z,11.10
2023-02-11T18:28:36.218Z,9.67
2023-02-11T18:31:04.905Z,7.20
2023-02-11T18:33:31.723Z,11.95
2023-02-11T18:35:58.117Z,10.10
2023-02-11T18:38:24.720Z,9.48
2023-02-11T18:40:52.355Z,13.47
2023-02-11T18:43:20.309Z,11.82
2023-02-11T18:45:47.821Z,9.25
2023-02-11T18:48:14.335Z,9.90
2023-02-11T18:50:42.519Z,10.73
2023-02-11T18:53:08.977Z,8.30
2023-02-11T18:55:35.358Z,14.48
2023-02-11T18:58:01.686Z,10.95
2023-02-11T19:00:28.019Z,8.27
2023-02-11T19:02:54.370Z,9.05
2023-02-11T19:05:21.618Z,7.97
2023-02-11T19:07:47.962Z,9.27
2023-02-11T19:10:14.380Z,9.75
2023-02-11T19:12:41.889Z,13.02
2023-02-11T19:15:08.696Z,10.65
2023-02-11T19:17:35.155Z,9.57
2023-02-11T19:20:01.600Z,9.10
2023-02-11T19:22:28.022Z,11.05
2023-02-11T19:24:54.561Z,12.48
2023-02-11T19:27:20.915Z,9.85
2023-02-11T19:29:47.354Z,11.83
2023-02-11T19:32:14.024Z,9.63
2023-02-11T19:34:43.239Z,8.23
2023-02-11T19:37:12.479Z,9.45
2023-02-11T19:39:40.075Z,8.50
2023-02-11T19:42:06.607Z,8.13
2023-02-11T19:44:32.995Z,7.60
2023-02-11T19:46:59.909Z,12.07
2023-02-11T19:49:26.400Z,9.52
2023-02-11T19:51:55.203Z,12.05
2023-02-11T19:54:21.983Z,10.10
2023-02-11T19:56:48.743Z,10.07
2023-02-11T19:59:15.542Z,9.35
2023-02-11T20:01:42.306Z,11.75
2023-02-11T20:04:09.147Z,9.15
2023-02-11T20:06:35.781Z,9.37
2023-02-11T20:09:06.656Z,9.95
2023-02-11T20:11:34.307Z,13.82
2023-02-11T20:14:00.783Z,14.00
2023-02-11T20:16:46.361Z,10.60
2023-02-11T20:19:17.521Z,11.40
2023-02-11T20:21:46.779Z,8.65
2023-02-11T20:24:14.004Z,12.00
2023-02-11T20:26:42.385Z,12.43
2023-02-11T20:29:09.023Z,10.02
2023-02-11T20:31:35.684Z,9.70
2023-02-11T20:34:02.535Z,8.57
2023-02-11T20:36:32.116Z,8.60
2023-02-11T20:39:04.857Z,11.27
2023-02-11T20:41:36.215Z,11.25
2023-02-11T20:44:06.108Z,7.83
2023-02-11T20:46:34.064Z,9.82
2023-02-11T20:49:01.705Z,11.02
2023-02-11T20:51:32.834Z,8.82
2023-02-11T20:54:00.060Z,10.77
2023-02-11T20:56:30.065Z,13.17
2023-02-11T20:58:57.980Z,8.52
2023-02-11T21:01:30.607Z,7.75
2023-02-11T21:04:06.674Z,8.32
2023-02-11T21:06:40.005Z,8.98
2023-02-11T21:09:08.566Z,8.97
2023-02-11T21:11:35.545Z,8.18
2023-02-11T21:14:03.012Z,10.25
2023-02-11T21:16:29.510Z,7.93
2023-02-11T21:18:55.987Z,10.50
2023-02-11T21:21:23.132Z,9.67
2023-02-11T21:23:49.829Z,9.25
2023-02-11T21:26:17.176Z,9.43
2023-02-11T21:28:43.888Z,8.52
2023-02-11T21:31:18.875Z,9.18
2023-02-11T21:33:45.383Z,9.13
2023-02-11T21:36:11.729Z,9.00
2023-02-11T21:38:38.149Z,10.27
2023-02-11T21:41:05.428Z,11.48
2023-02-11T21:43:32.883Z,17.40
2023-02-11T21:45:59.823Z,11.30
2023-02-11T21:48:26.690Z,11.05
2023-02-11T21:50:54.042Z,8.25
2023-02-11T21:53:20.504Z,14.07
2023-02-11T21:55:47.121Z,10.82
2023-02-11T21:58:14.285Z,11.73
2023-02-11T22:00:40.770Z,9.45
2023-02-11T22:03:07.231Z,9.70
2023-02-11T22:05:33.651Z,10.77
2023-02-11T22:08:00.029Z,10.60
2023-02-11T22:10:26.434Z,10.20
2023-02-11T22:12:52.784Z,8.48
2023-02-11T22:15:19.711Z,10.30
2023-02-11T22:17:46.049Z,10.23
2023-02-11T22:20:12.595Z,9.13
2023-02-11T22:22:39.017Z,9.97
2023-02-11T22:25:05.889Z,10.98
2023-02-11T22:27:32.363Z,10.70
2023-02-11T22:29:58.793Z,12.05
2023-02-11T22:32:25.211Z,9.98
2023-02-11T22:34:53.318Z,10.50
2023-02-11T22:37:20.099Z,9.75
2023-02-11T22:39:46.494Z,12.73
2023-02-11T22:42:12.834Z,12.50
2023-02-11T22:44:39.204Z,12.52
2023-02-11T22:47:05.664Z,12.97
2023-02-11T22:49:33.235Z,12.10
2023-02-11T22:52:00.250Z,12.65
2023-02-11T22:54:27.573Z,14.85
2023-02-11T22:56:53.931Z,12.23
2023-02-11T22:59:20.965Z,14.93
2023-02-11T23:01:47.599Z,14.35
2023-02-11T23:04:15.825Z,14.27
2023-02-11T23:06:43.033Z,15.00
2023-02-11T23:09:12.191Z,14.75
2023-02-11T23:11:39.825Z,15.50
2023-02-11T23:14:08.442Z,15.48
2023-02-11T23:16:34.889Z,14.52
2023-02-11T23:19:04.771Z,11.65
2023-02-11T23:21:33.372Z,17.95
2023-02-11T23:24:05.897Z,15.90
2023-02-11T23:26:32.425Z,15.30
2023-02-11T23:28:59.609Z,13.50
2023-02-11T23:31:37.409Z,15.25
2023-02-11T23:34:04.480Z,14.35
2023-02-11T23:36:31.210Z,16.73
2023-02-11T23:38:57.643Z,12.00
2023-02-11T23:41:24.622Z,16.27
2023-02-11T23:43:52.765Z,17.23
2023-02-11T23:46:21.890Z,13.70
2023-02-11T23:48:49.167Z,14.97
2023-02-11T23:51:15.645Z,15.32
2023-02-11T23:53:42.278Z,15.48
2023-02-11T23:56:11.222Z,12.95
2023-02-11T23:58:37.596Z,14.98
